Terminal Aerodrome Forecast
Issued by NWS Rapid City, SD

Home | Current Version | Previous Version | Text Only | Print | Product List | Glossary Off
Versions: 1 2 3 4 5 6 7 8 9 10 11 12 13 14 15 16 17

856
FTUS43 KUNR 191120
TAFRAP
TAF
KRAP 191120Z 1912/2012 01018KT 1SM -SN VV010
      TEMPO 1918/1922 1/2SM SN
     FM192200 02014KT 3SM -SN BKN015 OVC030
     FM200400 10008KT P6SM -SN BKN035=

USA.gov is the U.S. government's official web portal to all federal, state and local government web resources and services.